Pocatello Regional Airport Pocatello US
ICAO: KPIH
IATA: PIH
Category: Medium
Scheduled Services: Yes

Elevation: 4452 ft
TransAlt. 18000 ft.

Airport Communications:
ASOS:135.625
CLNC DEL:126.55
SALT LAKE CITY CNTR:128.35
CTAF:119.1
BOISE RDO:122.35
GND:121.9
BOISE RDO:122.35
TWR:119.1
UNICOM:122.95

KPIH Zoom In..

If you have problems with the map follow the link
https://www.worldairports.se/pages/airport.php?
ICAO=KPIH

Runways:

(A) RW 03 length 9060 ft width 150 ft
---- / hdg 31

(B) RW 17 length 7150 ft width 100 ft
---- / hdg 166

(C) RW 21 length 9060 ft width 150 ft
ILS 110.30 / hdg 211

(D) RW 35 length 7150 ft width 100 ft
---- / hdg 346

Location; KPIH
Day. 26 / Time. 02.05 Zulu
* Altimeter: 30.17
* Temperature: 03° c. 37.4°f.
* Wind from: 200° Speed 10 kn.
Dewpoint: -01° c.
Visibility: 10 Statute Miles.
Clouds: Few 1700 ft.
Clouds: Overcast 3600 ft.

KPIH 260205Z 20010KT 10SM FEW017 OVC036 03/M01 A3017 RMK AO2 T00281006 $


Wind From 200°
Speed 10 kn.

 
 
jpsmedia worldairports.se 2020   terms of use